createdAt,value
2022-11-27T00:00:19.654Z,1.8
2022-11-27T00:01:19.470Z,1.8
2022-11-27T00:02:19.865Z,1.8
2022-11-27T00:03:20.800Z,1
2022-11-27T00:04:19.897Z,1
2022-11-27T00:05:19.978Z,1.8
2022-11-27T00:06:19.413Z,1.8
2022-11-27T00:07:20.114Z,1.9
2022-11-27T00:08:20.365Z,1.8
2022-11-27T00:09:19.483Z,1.8
2022-11-27T00:10:20.059Z,1.8
2022-11-27T00:11:19.390Z,1.9
2022-11-27T00:12:19.860Z,1.9
2022-11-27T00:13:20.031Z,1.9
2022-11-27T00:14:18.900Z,1.9
2022-11-27T00:15:21.647Z,1.9
2022-11-27T00:16:18.851Z,1.9
2022-11-27T00:17:19.428Z,1.9
2022-11-27T00:18:20.269Z,1
2022-11-27T00:19:20.132Z,1.9
2022-11-27T00:20:19.563Z,1.9
2022-11-27T00:21:19.930Z,1.9
2022-11-27T00:22:19.944Z,1.9
2022-11-27T00:23:19.426Z,1
2022-11-27T00:24:19.957Z,1
2022-11-27T00:25:19.367Z,1.9
2022-11-27T00:26:19.906Z,1.9
2022-11-27T00:27:20.282Z,1.9
2022-11-27T00:28:19.625Z,1.9
2022-11-27T00:29:19.978Z,1.9
2022-11-27T00:30:19.601Z,1.9
2022-11-27T00:31:19.757Z,1
2022-11-27T00:32:19.763Z,1.9
2022-11-27T00:33:19.981Z,1.9
2022-11-27T00:34:18.811Z,1.8
2022-11-27T00:35:19.644Z,1.8
2022-11-27T00:36:20.045Z,1.8
2022-11-27T00:37:19.953Z,1.8
2022-11-27T00:38:19.386Z,1.8
2022-11-27T00:39:19.719Z,1.8
2022-11-27T00:40:20.122Z,1.8
2022-11-27T00:41:19.697Z,1.8
2022-11-27T00:42:20.104Z,1
2022-11-27T00:43:19.315Z,1.8
2022-11-27T00:44:19.801Z,1.8
2022-11-27T00:45:20.176Z,1.8
2022-11-27T00:46:22.733Z,1
2022-11-27T00:47:19.835Z,1.8
2022-11-27T00:48:18.925Z,1.8
2022-11-27T00:49:19.770Z,1.7
2022-11-27T00:50:19.583Z,1.7
2022-11-27T00:51:20.289Z,1.7
2022-11-27T00:52:19.542Z,1.7
2022-11-27T00:53:19.653Z,1.7
2022-11-27T00:54:22.640Z,1
2022-11-27T00:55:19.557Z,1.7
2022-11-27T00:56:19.860Z,1.8
2022-11-27T00:57:19.646Z,1.8
2022-11-27T00:58:20.215Z,1.7
2022-11-27T00:59:20.197Z,1.7
2022-11-27T01:00:19.490Z,1.7
2022-11-27T01:01:20.469Z,1.7
2022-11-27T01:02:19.917Z,1
2022-11-27T01:03:20.257Z,0
2022-11-27T01:04:19.343Z,1.7
2022-11-27T01:05:19.684Z,1.7
2022-11-27T01:06:20.179Z,1.7
2022-11-27T01:07:19.727Z,1.7
2022-11-27T01:08:20.005Z,1.7
2022-11-27T01:09:20.280Z,1.6
2022-11-27T01:10:19.822Z,1.6
2022-11-27T01:11:19.873Z,1.6
2022-11-27T01:12:19.897Z,1.6
2022-11-27T01:13:19.737Z,1.6
2022-11-27T01:14:19.940Z,0
2022-11-27T01:15:19.042Z,1.6
2022-11-27T01:16:19.879Z,1.6
2022-11-27T01:17:20.524Z,1.6
2022-11-27T01:18:20.048Z,1.6
2022-11-27T01:19:20.165Z,1.6
2022-11-27T01:20:19.568Z,1.6
2022-11-27T01:21:20.090Z,1.6
2022-11-27T01:22:19.317Z,1.5
2022-11-27T01:23:20.235Z,0
2022-11-27T01:24:19.713Z,1.5
2022-11-27T01:25:21.901Z,1.5
2022-11-27T01:26:20.229Z,1.5
2022-11-27T01:27:19.441Z,1.5
2022-11-27T01:28:19.971Z,1.4
2022-11-27T01:29:19.829Z,1.4
2022-11-27T01:30:20.302Z,1.4
2022-11-27T01:31:20.659Z,1.4
2022-11-27T01:32:19.626Z,1.4
2022-11-27T01:33:20.073Z,0
2022-11-27T01:34:19.452Z,1.4
2022-11-27T01:35:19.415Z,1.4
2022-11-27T01:36:20.017Z,1.4
2022-11-27T01:37:19.412Z,1.4
2022-11-27T01:38:19.808Z,1.4
2022-11-27T01:39:18.763Z,0
2022-11-27T01:40:20.130Z,1.4
2022-11-27T01:41:19.924Z,1.4
2022-11-27T01:42:20.262Z,1.4
2022-11-27T01:43:19.648Z,0
2022-11-27T01:44:20.054Z,0
2022-11-27T01:45:20.286Z,1.4
2022-11-27T01:46:19.852Z,1.4
2022-11-27T01:47:20.156Z,0
2022-11-27T01:48:20.167Z,1.5
2022-11-27T01:49:18.522Z,0
2022-11-27T01:50:19.813Z,1.4
2022-11-27T01:51:20.256Z,1.4
2022-11-27T01:52:19.644Z,1.4
2022-11-27T01:53:20.300Z,1.4
2022-11-27T01:54:19.760Z,1.4
2022-11-27T01:55:19.437Z,1.4
2022-11-27T01:56:19.664Z,1.5
2022-11-27T01:57:20.137Z,1.5
2022-11-27T01:58:19.668Z,1.4
2022-11-27T01:59:20.260Z,1.4
2022-11-27T02:00:19.752Z,1.4
2022-11-27T02:01:19.605Z,1.4
2022-11-27T02:02:20.141Z,1.4
2022-11-27T02:03:19.787Z,1.4
2022-11-27T02:04:20.022Z,1.4
2022-11-27T02:05:19.416Z,1.4
2022-11-27T02:06:19.313Z,0
2022-11-27T02:07:19.159Z,0
2022-11-27T02:08:20.323Z,1.4
2022-11-27T02:09:19.476Z,1.4
2022-11-27T02:10:19.875Z,1.5
2022-11-27T02:11:19.901Z,1.5
2022-11-27T02:12:20.097Z,1.5
2022-11-27T02:13:19.552Z,1.5
2022-11-27T02:14:19.460Z,1.5
2022-11-27T02:15:20.221Z,1.5
2022-11-27T02:16:22.534Z,1.5
2022-11-27T02:17:19.894Z,1.5
2022-11-27T02:18:20.239Z,1.5
2022-11-27T02:19:19.386Z,1.5
2022-11-27T02:20:19.870Z,1.5
2022-11-27T02:21:20.328Z,1.5
2022-11-27T02:22:19.693Z,1.5
2022-11-27T02:23:19.547Z,1.5
2022-11-27T02:24:19.929Z,1.4
2022-11-27T02:25:23.990Z,1.4
2022-11-27T02:26:19.772Z,0
2022-11-27T02:27:20.165Z,1.4
2022-11-27T02:28:19.537Z,1.4
2022-11-27T02:29:19.193Z,1.4
2022-11-27T02:30:19.017Z,0
2022-11-27T02:31:19.533Z,1.4
2022-11-27T02:32:19.792Z,1.4
2022-11-27T02:33:20.123Z,1.4
2022-11-27T02:34:19.702Z,1.4
2022-11-27T02:35:20.116Z,1.4
2022-11-27T02:36:19.728Z,0
2022-11-27T02:37:19.269Z,1.4
2022-11-27T02:38:20.278Z,1.4
2022-11-27T02:39:19.467Z,1.4
2022-11-27T02:40:19.500Z,1.4
2022-11-27T02:41:20.014Z,1.4
2022-11-27T02:42:19.692Z,1.4
2022-11-27T02:43:20.308Z,1.4
2022-11-27T02:44:19.717Z,1.4
2022-11-27T02:45:19.947Z,1.4
2022-11-27T02:46:20.285Z,1.4
2022-11-27T02:47:20.277Z,1.4
2022-11-27T02:48:19.665Z,1.3
2022-11-27T02:49:20.107Z,0
2022-11-27T02:50:19.515Z,1.4
2022-11-27T02:51:20.179Z,1.4
2022-11-27T02:52:19.650Z,1.4
2022-11-27T02:53:20.072Z,1.4
2022-11-27T02:54:19.300Z,1.3
2022-11-27T02:55:20.038Z,1.3
2022-11-27T02:56:20.027Z,1.4
2022-11-27T02:57:19.722Z,1.4
2022-11-27T02:58:20.629Z,1.3
2022-11-27T02:59:18.548Z,1.4
2022-11-27T03:00:19.389Z,0
2022-11-27T03:01:19.724Z,1.3
2022-11-27T03:02:20.497Z,1.3
2022-11-27T03:03:20.117Z,1.3
2022-11-27T03:04:19.414Z,1.4
2022-11-27T03:05:19.472Z,1.4
2022-11-27T03:06:19.857Z,1.4
2022-11-27T03:07:20.299Z,1.4
2022-11-27T03:08:19.427Z,1.4
2022-11-27T03:09:19.407Z,1.4
2022-11-27T03:10:19.739Z,1.4
2022-11-27T03:11:20.107Z,1
2022-11-27T03:12:19.594Z,1.4
2022-11-27T03:13:19.955Z,1.4
2022-11-27T03:14:19.675Z,1.4
2022-11-27T03:15:19.879Z,1.4
2022-11-27T03:16:18.643Z,1.4
2022-11-27T03:17:20.140Z,1.4
2022-11-27T03:18:20.268Z,1.4
2022-11-27T03:19:19.710Z,1.4
2022-11-27T03:20:19.975Z,1.4
2022-11-27T03:21:20.289Z,1.4
2022-11-27T03:22:19.941Z,1.4
2022-11-27T03:23:19.711Z,1.4
2022-11-27T03:24:20.152Z,1.5
2022-11-27T03:25:20.148Z,1.5
2022-11-27T03:26:20.146Z,1.5
2022-11-27T03:27:20.222Z,1.5
2022-11-27T03:28:19.503Z,1.5
2022-11-27T03:29:19.655Z,1.5
2022-11-27T03:30:20.416Z,1
2022-11-27T03:31:20.227Z,1.6
2022-11-27T03:32:19.479Z,1.5
2022-11-27T03:33:19.802Z,1.6
2022-11-27T03:34:19.388Z,1.6
2022-11-27T03:35:19.856Z,1
2022-11-27T03:36:20.143Z,1.6
2022-11-27T03:37:19.528Z,1.6
2022-11-27T03:38:19.011Z,1.6
2022-11-27T03:39:18.504Z,1.6
2022-11-27T03:40:20.029Z,1.6
2022-11-27T03:41:19.331Z,1.6
2022-11-27T03:42:20.347Z,1.6
2022-11-27T03:43:19.906Z,1.6
2022-11-27T03:44:19.891Z,1.6
2022-11-27T03:45:20.435Z,1.6
2022-11-27T03:46:20.037Z,1.6
2022-11-27T03:47:20.198Z,1.6
2022-11-27T03:48:20.180Z,1.6
2022-11-27T03:49:19.517Z,1.6
2022-11-27T03:50:19.902Z,1.6
2022-11-27T03:51:20.344Z,1.6
2022-11-27T03:52:19.573Z,1.6
2022-11-27T03:53:20.012Z,1.6
2022-11-27T03:54:19.315Z,1.6
2022-11-27T03:55:19.761Z,1.6
2022-11-27T03:56:20.314Z,1.6
2022-11-27T03:57:19.707Z,1.6
2022-11-27T03:58:20.187Z,1.6
2022-11-27T03:59:19.556Z,1
2022-11-27T04:00:19.914Z,1.6
2022-11-27T04:01:20.366Z,1.6
2022-11-27T04:02:25.036Z,1.6
2022-11-27T04:03:19.583Z,1.6
2022-11-27T04:04:19.338Z,1.6
2022-11-27T04:05:19.692Z,1.6
2022-11-27T04:06:18.838Z,1.6
2022-11-27T04:07:18.543Z,1.6
2022-11-27T04:08:19.948Z,1.6
2022-11-27T04:09:20.352Z,1.6
2022-11-27T04:10:20.236Z,1.6
2022-11-27T04:11:19.492Z,1
2022-11-27T04:12:19.996Z,1
2022-11-27T04:13:20.034Z,1.7
2022-11-27T04:14:20.086Z,1.7
2022-11-27T04:15:20.206Z,1.7
2022-11-27T04:16:20.372Z,1.7
2022-11-27T04:17:19.395Z,1.6
2022-11-27T04:18:20.143Z,1.7
2022-11-27T04:19:20.437Z,1.7
2022-11-27T04:20:19.754Z,1.7
2022-11-27T04:21:20.087Z,1.7
2022-11-27T04:22:19.456Z,1.7
2022-11-27T04:23:19.864Z,1.7
2022-11-27T04:24:20.312Z,1.7
2022-11-27T04:25:19.687Z,1.6
2022-11-27T04:26:20.044Z,1.6
2022-11-27T04:27:19.552Z,1.7
2022-11-27T04:28:18.975Z,1.7
2022-11-27T04:29:20.285Z,1.6
2022-11-27T04:30:19.764Z,1.6
2022-11-27T04:31:19.943Z,1.6
2022-11-27T04:32:19.806Z,1.6
2022-11-27T04:33:20.196Z,1.6
2022-11-27T04:34:19.816Z,1.6
2022-11-27T04:35:20.021Z,1.6
2022-11-27T04:36:19.693Z,1.6
2022-11-27T04:37:20.176Z,1.6
2022-11-27T04:38:19.468Z,1.6
2022-11-27T04:39:19.976Z,1.6
2022-11-27T04:40:20.020Z,1.6
2022-11-27T04:41:19.335Z,1.6
2022-11-27T04:42:19.737Z,1.6
2022-11-27T04:43:20.286Z,1.6
2022-11-27T04:44:19.994Z,1.6
2022-11-27T04:45:19.356Z,1.6
2022-11-27T04:46:20.196Z,1.6
2022-11-27T04:47:20.330Z,1.6
2022-11-27T04:48:19.692Z,1.6
2022-11-27T04:49:20.158Z,1.6
2022-11-27T04:50:19.835Z,1.6
2022-11-27T04:51:25.145Z,1.6
2022-11-27T04:52:19.525Z,1.6
2022-11-27T04:53:19.626Z,1.6
2022-11-27T04:54:19.746Z,1.6
2022-11-27T04:55:19.437Z,1.6
2022-11-27T04:56:19.438Z,1.6
2022-11-27T04:57:19.790Z,1
2022-11-27T04:58:19.476Z,1
2022-11-27T04:59:19.877Z,1.6
2022-11-27T05:00:19.949Z,1.6
2022-11-27T05:01:20.298Z,1.6
2022-11-27T05:02:20.198Z,1.6
2022-11-27T05:03:19.797Z,1.6
2022-11-27T05:04:19.442Z,1.6
2022-11-27T05:05:19.780Z,1.6
2022-11-27T05:06:20.369Z,1.6
2022-11-27T05:07:19.703Z,1.6
2022-11-27T05:08:20.323Z,1.6
2022-11-27T05:09:19.461Z,1.6
2022-11-27T05:10:20.077Z,1.6
2022-11-27T05:11:19.429Z,1.7
2022-11-27T05:12:19.782Z,1.6
2022-11-27T05:13:20.201Z,1.6
2022-11-27T05:14:18.954Z,1.6
2022-11-27T05:15:20.400Z,1.7
2022-11-27T05:16:19.309Z,1.7
2022-11-27T05:17:19.549Z,1.7
2022-11-27T05:18:20.236Z,1.7
2022-11-27T05:19:20.165Z,1.7
2022-11-27T05:20:19.675Z,1
2022-11-27T05:21:19.927Z,1.7
2022-11-27T05:22:19.868Z,1.7
2022-11-27T05:23:20.003Z,1.7
2022-11-27T05:24:19.638Z,1.7
2022-11-27T05:25:19.962Z,1.7
2022-11-27T05:26:20.377Z,1.7
2022-11-27T05:27:19.905Z,1.7
2022-11-27T05:28:26.955Z,1.7
2022-11-27T05:29:19.518Z,1.8
2022-11-27T05:30:20.236Z,1.7
2022-11-27T05:31:20.276Z,1.8
2022-11-27T05:32:19.488Z,1.8
2022-11-27T05:33:19.910Z,1.8
2022-11-27T05:34:20.371Z,1.8
2022-11-27T05:35:19.142Z,1.8
2022-11-27T05:36:19.490Z,1.8
2022-11-27T05:37:24.016Z,1
2022-11-27T05:38:18.604Z,1
2022-11-27T05:39:20.116Z,1.8
2022-11-27T05:40:20.212Z,1.8
2022-11-27T05:41:19.499Z,1
2022-11-27T05:42:19.824Z,1
2022-11-27T05:43:19.468Z,1.8
2022-11-27T05:44:19.685Z,1.8
2022-11-27T05:45:20.149Z,1.8
2022-11-27T05:46:20.430Z,1.8
2022-11-27T05:47:19.525Z,1.8
2022-11-27T05:48:19.876Z,1.8
2022-11-27T05:49:20.240Z,1.9
2022-11-27T05:50:19.736Z,1.9
2022-11-27T05:51:20.166Z,1.9
2022-11-27T05:52:20.247Z,1.9
2022-11-27T05:53:19.814Z,1.9
2022-11-27T05:54:19.567Z,1.9
2022-11-27T05:55:19.922Z,1
2022-11-27T05:56:20.221Z,1
2022-11-27T05:57:19.560Z,1.9
2022-11-27T05:58:19.185Z,1.9
2022-11-27T05:59:19.498Z,1.8
2022-11-27T06:00:20.188Z,1.9
2022-11-27T06:01:19.926Z,1.9
2022-11-27T06:02:31.511Z,1.9
2022-11-27T06:03:20.002Z,1.8
2022-11-27T06:04:20.186Z,1.9
2022-11-27T06:05:19.689Z,1.8
2022-11-27T06:06:20.013Z,1.8
2022-11-27T06:07:19.725Z,1
2022-11-27T06:08:19.711Z,1.8
2022-11-27T06:09:20.311Z,1.8
2022-11-27T06:10:20.155Z,1.8
2022-11-27T06:11:20.276Z,1.9
2022-11-27T06:12:19.703Z,1.9
2022-11-27T06:13:19.749Z,1.9
2022-11-27T06:14:19.875Z,1.9
2022-11-27T06:15:20.341Z,1.9
2022-11-27T06:16:19.744Z,1.8
2022-11-27T06:17:20.034Z,1.8
2022-11-27T06:18:20.128Z,1.8
2022-11-27T06:19:19.568Z,1.8
2022-11-27T06:20:19.699Z,1
2022-11-27T06:21:18.587Z,1.8
2022-11-27T06:22:19.634Z,1.9
2022-11-27T06:23:19.825Z,1.9
2022-11-27T06:24:20.202Z,1.9
2022-11-27T06:25:19.713Z,1.9
2022-11-27T06:26:20.356Z,1.9
2022-11-27T06:27:19.849Z,1.8
2022-11-27T06:28:19.695Z,1.8
2022-11-27T06:29:19.960Z,1.8
2022-11-27T06:30:19.958Z,1.8
2022-11-27T06:31:22.461Z,1.8
2022-11-27T06:32:20.258Z,1.9
2022-11-27T06:33:19.627Z,1.8
2022-11-27T06:34:19.823Z,1.8
2022-11-27T06:35:19.405Z,1.8
2022-11-27T06:36:19.825Z,1.8
2022-11-27T06:37:20.130Z,1
2022-11-27T06:38:19.525Z,1.8
2022-11-27T06:39:19.836Z,1.8
2022-11-27T06:40:20.395Z,1.9
2022-11-27T06:41:19.904Z,1.8
2022-11-27T06:42:19.260Z,1
2022-11-27T06:43:19.522Z,1
2022-11-27T06:44:25.025Z,1.8
2022-11-27T06:45:19.829Z,1.8
2022-11-27T06:46:19.907Z,1.9
2022-11-27T06:47:19.672Z,1.9
2022-11-27T06:48:19.648Z,1.9
2022-11-27T06:49:19.901Z,1.9
2022-11-27T06:50:20.370Z,1.9
2022-11-27T06:51:19.837Z,1.8
2022-11-27T06:52:20.104Z,1.9
2022-11-27T06:53:19.465Z,1.9
2022-11-27T06:54:19.941Z,1.9
2022-11-27T06:55:19.444Z,1
2022-11-27T06:56:19.833Z,1.9
2022-11-27T06:57:20.308Z,1.9
2022-11-27T06:58:19.738Z,1.9
2022-11-27T06:59:19.922Z,1.9
2022-11-27T07:00:20.306Z,2
2022-11-27T07:01:20.337Z,2
2022-11-27T07:02:20.411Z,2
2022-11-27T07:03:19.686Z,1.9
2022-11-27T07:04:19.457Z,2
2022-11-27T07:05:20.140Z,2
2022-11-27T07:06:18.381Z,1
2022-11-27T07:07:20.109Z,2
2022-11-27T07:08:19.281Z,2
2022-11-27T07:09:20.313Z,2
2022-11-27T07:10:19.639Z,1
2022-11-27T07:11:19.564Z,1
2022-11-27T07:12:19.685Z,2
2022-11-27T07:13:20.480Z,2
2022-11-27T07:14:19.870Z,2
2022-11-27T07:15:20.193Z,2
2022-11-27T07:16:20.197Z,2
2022-11-27T07:17:20.500Z,2
2022-11-27T07:18:19.637Z,2
2022-11-27T07:19:20.247Z,1
2022-11-27T07:20:20.118Z,2
2022-11-27T07:21:19.578Z,2
2022-11-27T07:22:20.063Z,2
2022-11-27T07:23:19.359Z,2.1
2022-11-27T07:24:19.895Z,2
2022-11-27T07:25:19.907Z,2
2022-11-27T07:26:19.549Z,2
2022-11-27T07:27:19.858Z,2
2022-11-27T07:28:23.368Z,2
2022-11-27T07:29:20.350Z,2
2022-11-27T07:30:20.345Z,2.1
2022-11-27T07:31:20.534Z,2.1
2022-11-27T07:32:20.246Z,2.1
2022-11-27T07:33:20.051Z,2.1
2022-11-27T07:34:25.629Z,2.1
2022-11-27T07:35:19.905Z,2.1
2022-11-27T07:36:19.713Z,2.1
2022-11-27T07:37:20.044Z,2
2022-11-27T07:38:19.527Z,2.1
2022-11-27T07:40:19.799Z,2.1
2022-11-27T07:41:20.119Z,2.1
2022-11-27T07:42:42.265Z,2.1
2022-11-27T07:43:20.404Z,2.1
2022-11-27T07:44:19.852Z,2.1
2022-11-27T07:45:20.282Z,2.1
2022-11-27T07:46:20.799Z,2.2
2022-11-27T07:47:19.451Z,2.1
2022-11-27T07:48:19.660Z,2.1
2022-11-27T07:49:20.431Z,2.1
2022-11-27T07:50:19.571Z,2.2
2022-11-27T07:51:20.286Z,2.1
2022-11-27T07:52:20.036Z,2.1
2022-11-27T07:53:20.051Z,2
2022-11-27T07:54:20.378Z,2.2
2022-11-27T07:55:19.780Z,2.1
2022-11-27T07:56:20.162Z,2.2
2022-11-27T07:57:20.091Z,2.2
2022-11-27T07:58:19.549Z,2.2
2022-11-27T07:59:19.777Z,2.2
2022-11-27T08:00:19.088Z,2.1
2022-11-27T08:01:20.023Z,2.2
2022-11-27T08:02:20.170Z,2.2
2022-11-27T08:03:19.875Z,2.2
2022-11-27T08:04:20.500Z,2.2
2022-11-27T08:05:19.946Z,2.2
2022-11-27T08:06:20.145Z,2.3
2022-11-27T08:07:20.334Z,2.2
2022-11-27T08:08:19.650Z,2.2
2022-11-27T08:09:20.057Z,2.3
2022-11-27T08:10:20.396Z,2.3
2022-11-27T08:11:19.954Z,2.3
2022-11-27T08:12:19.420Z,2.2
2022-11-27T08:13:19.773Z,2.2
2022-11-27T08:14:20.175Z,2.2
2022-11-27T08:15:19.826Z,2.2
2022-11-27T08:16:20.094Z,2.2
2022-11-27T08:17:19.790Z,2.3
2022-11-27T08:18:19.793Z,2.3
2022-11-27T08:19:19.736Z,2
2022-11-27T08:20:18.928Z,2.3
2022-11-27T08:21:19.984Z,2.2
2022-11-27T08:22:20.349Z,2.2
2022-11-27T08:23:19.787Z,2.2
2022-11-27T08:24:20.166Z,2.3
2022-11-27T08:25:20.146Z,2.3
2022-11-27T08:26:19.508Z,2.3
2022-11-27T08:27:20.094Z,2.3
2022-11-27T08:28:19.546Z,2.2
2022-11-27T08:29:20.012Z,2.2
2022-11-27T08:30:19.527Z,2.3
2022-11-27T08:31:19.967Z,2.3
2022-11-27T08:32:20.244Z,2.3
2022-11-27T08:33:19.543Z,2.3
2022-11-27T08:34:19.448Z,2.3
2022-11-27T08:35:20.140Z,2.3
2022-11-27T08:36:22.494Z,2.3
2022-11-27T08:37:19.290Z,2.3
2022-11-27T08:38:19.111Z,2.3
2022-11-27T08:39:19.353Z,2.3
2022-11-27T08:40:19.705Z,2
2022-11-27T08:41:19.721Z,2
2022-11-27T08:42:19.897Z,2.3
2022-11-27T08:43:20.015Z,2.3
2022-11-27T08:44:19.900Z,2.3
2022-11-27T08:45:19.734Z,2.4
2022-11-27T08:46:20.215Z,2.3
2022-11-27T08:47:19.899Z,2.3
2022-11-27T08:48:20.467Z,2.4
2022-11-27T08:49:19.506Z,2.3
2022-11-27T08:50:20.018Z,2.3
2022-11-27T08:51:19.550Z,2.3
2022-11-27T08:52:19.911Z,2.3
2022-11-27T08:53:20.452Z,2
2022-11-27T08:54:19.776Z,2.3
2022-11-27T08:55:20.378Z,2.4
2022-11-27T08:56:19.967Z,2.3
2022-11-27T08:57:19.306Z,2.3
2022-11-27T08:58:19.629Z,2.4
2022-11-27T08:59:20.251Z,2.4
2022-11-27T09:00:22.475Z,2.4
2022-11-27T09:01:20.568Z,2.4
2022-11-27T09:02:20.043Z,2.4
2022-11-27T09:03:20.257Z,2.4
2022-11-27T09:04:20.037Z,2.4
2022-11-27T09:05:19.706Z,2.4
2022-11-27T09:06:20.497Z,2.4
2022-11-27T09:07:20.344Z,2.4
2022-11-27T09:08:19.552Z,2
2022-11-27T09:09:19.880Z,2
2022-11-27T09:10:20.069Z,2.5
2022-11-27T09:11:19.628Z,2.5
2022-11-27T09:12:20.018Z,2.5
2022-11-27T09:13:20.540Z,2
2022-11-27T09:14:19.747Z,2.5
2022-11-27T09:15:20.052Z,2
2022-11-27T09:16:20.296Z,2
2022-11-27T09:17:19.477Z,2.6
2022-11-27T09:18:19.863Z,2.5
2022-11-27T09:19:19.222Z,2.6
2022-11-27T09:20:19.652Z,2.6
2022-11-27T09:21:19.887Z,2.7
2022-11-27T09:22:20.351Z,2.7
2022-11-27T09:23:19.742Z,2.7
2022-11-27T09:24:20.223Z,2.8
2022-11-27T09:25:19.764Z,2.8
2022-11-27T09:26:20.261Z,2.8
2022-11-27T09:27:19.705Z,2.8
2022-11-27T09:28:20.120Z,2.8
2022-11-27T09:29:20.315Z,2.8
2022-11-27T09:30:19.680Z,2.9
2022-11-27T09:31:19.950Z,2.9
2022-11-27T09:32:19.774Z,2.9
2022-11-27T09:33:20.230Z,2.9
2022-11-27T09:34:19.459Z,3
2022-11-27T09:35:20.141Z,3
2022-11-27T09:36:20.401Z,3
2022-11-27T09:37:20.039Z,3
2022-11-27T09:38:26.302Z,3
2022-11-27T09:39:20.208Z,3
2022-11-27T09:40:20.149Z,3
2022-11-27T09:41:19.291Z,3
2022-11-27T09:42:18.891Z,3.1
2022-11-27T09:43:20.006Z,3.1
2022-11-27T09:44:19.938Z,3
2022-11-27T09:45:20.338Z,3.1
2022-11-27T09:46:19.982Z,3.1
2022-11-27T09:47:19.632Z,3.1
2022-11-27T09:48:19.955Z,3.1
2022-11-27T09:49:20.438Z,3.1
2022-11-27T09:50:19.756Z,3.2
2022-11-27T09:51:19.711Z,3.2
2022-11-27T09:52:20.244Z,3.2
2022-11-27T09:53:19.947Z,3.2
2022-11-27T09:54:20.392Z,3.2
2022-11-27T09:55:19.894Z,3.2
2022-11-27T09:56:20.233Z,3.2
2022-11-27T09:57:19.979Z,3.2
2022-11-27T09:58:20.278Z,3.3
2022-11-27T09:59:19.687Z,3.2
2022-11-27T10:00:20.062Z,3.2
2022-11-27T10:01:20.280Z,3.2
2022-11-27T10:02:20.472Z,3.3
2022-11-27T10:03:19.786Z,3.3
2022-11-27T10:04:18.992Z,3.3
2022-11-27T10:05:22.632Z,3.4
2022-11-27T10:06:18.786Z,3.4
2022-11-27T10:07:19.631Z,3.4
2022-11-27T10:08:19.916Z,3.3
2022-11-27T10:09:20.008Z,3.3
2022-11-27T10:10:20.550Z,3.4
2022-11-27T10:11:20.114Z,3.4
2022-11-27T10:12:19.419Z,3.4
2022-11-27T10:13:20.073Z,3.4
2022-11-27T10:14:20.298Z,3.5
2022-11-27T10:15:20.240Z,3.5
2022-11-27T10:16:20.612Z,3
2022-11-27T10:17:19.629Z,3.5
2022-11-27T10:18:20.029Z,3.5
2022-11-27T10:19:20.483Z,3.5
2022-11-27T10:20:20.002Z,3.6
2022-11-27T10:21:19.549Z,3.6
2022-11-27T10:22:25.160Z,3.6
2022-11-27T10:23:20.110Z,3.6
2022-11-27T10:24:19.157Z,3.6
2022-11-27T10:25:19.379Z,3.6
2022-11-27T10:26:19.883Z,3.6
2022-11-27T10:27:18.605Z,3.6
2022-11-27T10:28:20.359Z,3.6
2022-11-27T10:29:19.507Z,3.6
2022-11-27T10:30:19.870Z,3.6
2022-11-27T10:31:18.813Z,3.6
2022-11-27T10:32:59.028Z,3.7
2022-11-27T10:33:19.698Z,3.7
2022-11-27T10:34:20.183Z,3.7
2022-11-27T10:35:19.774Z,3.7
2022-11-27T10:36:20.265Z,3.7
2022-11-27T10:37:20.063Z,3.7
2022-11-27T10:38:20.481Z,3.8
2022-11-27T10:39:19.687Z,3.8
2022-11-27T10:40:20.203Z,3.8
2022-11-27T10:41:52.364Z,3.8
2022-11-27T10:42:20.350Z,3.8
2022-11-27T10:43:19.877Z,3.9
2022-11-27T10:44:20.160Z,3.8
2022-11-27T10:45:19.663Z,3.8
2022-11-27T10:46:19.931Z,3.8
2022-11-27T10:47:20.160Z,3.8
2022-11-27T10:48:19.487Z,3.8
2022-11-27T10:49:19.005Z,3.8
2022-11-27T10:50:20.367Z,3
2022-11-27T10:51:19.658Z,3
2022-11-27T10:52:19.507Z,3.9
2022-11-27T10:53:19.936Z,3.9
2022-11-27T10:54:20.271Z,3.9
2022-11-27T10:55:20.258Z,3.9
2022-11-27T10:56:19.803Z,3.9
2022-11-27T10:57:20.067Z,3.9
2022-11-27T10:58:19.583Z,3.9
2022-11-27T10:59:19.702Z,3.9
2022-11-27T11:00:19.962Z,3.9
2022-11-27T11:01:20.190Z,3.9
2022-11-27T11:02:20.411Z,3.9
2022-11-27T11:03:19.700Z,3.9
2022-11-27T11:04:41.429Z,3.9
2022-11-27T11:06:23.347Z,3.9
2022-11-27T11:06:27.532Z,3.9
2022-11-27T11:07:19.716Z,4
2022-11-27T11:08:19.826Z,4
2022-11-27T11:09:20.326Z,4
2022-11-27T11:10:19.661Z,4
2022-11-27T11:11:20.227Z,4
2022-11-27T11:12:19.837Z,4.1
2022-11-27T11:13:20.139Z,4.1
2022-11-27T11:14:20.441Z,4.1
2022-11-27T11:15:19.899Z,4.1
2022-11-27T11:16:29.482Z,4.2
2022-11-27T11:17:20.711Z,4.2
2022-11-27T11:18:20.159Z,4.2
2022-11-27T11:19:20.354Z,4.2
2022-11-27T11:20:20.294Z,4.2
2022-11-27T11:21:19.597Z,4.2
2022-11-27T11:22:19.935Z,4.2
2022-11-27T11:23:20.440Z,4.3
2022-11-27T11:24:19.837Z,4.3
2022-11-27T11:25:20.132Z,4.3
2022-11-27T11:26:19.016Z,4.2
2022-11-27T11:27:19.509Z,4.3
2022-11-27T11:28:25.049Z,4.3
2022-11-27T11:29:19.986Z,4.3
2022-11-27T11:30:19.056Z,4.2
2022-11-27T11:31:20.247Z,4.2
2022-11-27T11:32:19.850Z,4.3
2022-11-27T11:33:19.735Z,4.3
2022-11-27T11:34:20.085Z,4.3
2022-11-27T11:35:19.625Z,4.3
2022-11-27T11:36:20.064Z,4
2022-11-27T11:37:20.202Z,4.4
2022-11-27T11:38:19.619Z,4.4
2022-11-27T11:39:19.910Z,4.4
2022-11-27T11:40:21.033Z,4.4
2022-11-27T11:41:20.319Z,4.4
2022-11-27T11:42:19.621Z,4.4
2022-11-27T11:43:19.612Z,4.4
2022-11-27T11:44:19.909Z,4.5
2022-11-27T11:45:20.555Z,4.5
2022-11-27T11:46:20.422Z,4.5
2022-11-27T11:47:19.627Z,4.5
2022-11-27T11:48:20.006Z,4
2022-11-27T11:49:20.314Z,4.6
2022-11-27T11:50:19.790Z,4.6
2022-11-27T11:51:20.153Z,4.6
2022-11-27T11:52:20.223Z,4.6
2022-11-27T11:53:20.131Z,4.6
2022-11-27T11:54:20.403Z,4.5
2022-11-27T11:55:19.999Z,4.5
2022-11-27T11:56:20.403Z,4.5
2022-11-27T11:57:19.518Z,4.5
2022-11-27T11:58:19.557Z,4.5
2022-11-27T11:59:20.277Z,4.5
2022-11-27T12:00:20.608Z,4
2022-11-27T12:01:35.713Z,4
2022-11-27T12:02:19.875Z,4.4
2022-11-27T12:03:20.366Z,4.4
2022-11-27T12:04:19.923Z,4
2022-11-27T12:05:20.154Z,4
2022-11-27T12:06:19.448Z,4.6
2022-11-27T12:07:20.356Z,4.6
2022-11-27T12:08:19.563Z,4.6
2022-11-27T12:09:20.113Z,4.6
2022-11-27T12:10:19.661Z,4.6
2022-11-27T12:11:20.289Z,4.6
2022-11-27T12:12:19.566Z,4.7
2022-11-27T12:13:20.034Z,4.7
2022-11-27T12:14:19.578Z,4.7
2022-11-27T12:15:19.879Z,4.7
2022-11-27T12:16:20.181Z,4.7
2022-11-27T12:17:20.340Z,4.7
2022-11-27T12:18:18.832Z,4.8
2022-11-27T12:19:20.324Z,4.8
2022-11-27T12:20:19.853Z,4.8
2022-11-27T12:21:19.717Z,4.8
2022-11-27T12:22:19.549Z,4.8
2022-11-27T12:23:19.532Z,4.8
2022-11-27T12:24:20.160Z,4.8
2022-11-27T12:25:19.917Z,4.8
2022-11-27T12:26:20.277Z,4.8
2022-11-27T12:27:20.159Z,4.8
2022-11-27T12:28:19.485Z,4.8
2022-11-27T12:29:19.474Z,4.8
2022-11-27T12:30:19.923Z,4.8
2022-11-27T12:31:20.057Z,4.8
2022-11-27T12:32:20.332Z,4.8
2022-11-27T12:33:19.725Z,4.8
2022-11-27T12:34:20.152Z,4.8
2022-11-27T12:35:20.580Z,4.8
2022-11-27T12:36:19.890Z,4.8
2022-11-27T12:37:20.219Z,4.7
2022-11-27T12:38:19.542Z,4.7
2022-11-27T12:39:19.724Z,4.7
2022-11-27T12:40:20.255Z,4.7
2022-11-27T12:41:20.065Z,4.7
2022-11-27T12:42:25.942Z,4.7
2022-11-27T12:43:18.513Z,4.7
2022-11-27T12:44:19.970Z,4.7
2022-11-27T12:45:19.964Z,4.7
2022-11-27T12:46:20.271Z,4.6
2022-11-27T12:47:19.551Z,4
2022-11-27T12:48:19.851Z,4
2022-11-27T12:49:19.936Z,4.7
2022-11-27T12:50:20.181Z,4.7
2022-11-27T12:51:19.841Z,4.7
2022-11-27T12:52:20.222Z,4.6
2022-11-27T12:53:27.359Z,4.7
2022-11-27T12:54:20.506Z,4.7
2022-11-27T12:55:19.959Z,4.7
2022-11-27T12:56:20.399Z,4.7
2022-11-27T12:57:19.861Z,4.7
2022-11-27T12:58:20.279Z,4.8
2022-11-27T12:59:19.544Z,4.8
2022-11-27T13:00:19.917Z,4.8
2022-11-27T13:01:26.646Z,4
2022-11-27T13:02:19.807Z,4.8
2022-11-27T13:03:19.822Z,4.8
2022-11-27T13:04:20.287Z,4.8
2022-11-27T13:05:19.934Z,4.8
2022-11-27T13:06:19.915Z,4.8
2022-11-27T13:07:20.171Z,4.8
2022-11-27T13:08:20.379Z,4.8
2022-11-27T13:09:19.955Z,4.8
2022-11-27T13:10:20.424Z,4.7
2022-11-27T13:11:19.774Z,4.7
2022-11-27T13:12:20.160Z,4.7
2022-11-27T13:13:20.188Z,4.7
2022-11-27T13:14:19.714Z,4.6
2022-11-27T13:15:20.108Z,4.6
2022-11-27T13:16:20.306Z,4.6
2022-11-27T13:17:20.240Z,4.6
2022-11-27T13:18:19.613Z,4.7
2022-11-27T13:19:19.633Z,4.7
2022-11-27T13:20:19.929Z,4.7
2022-11-27T13:21:20.311Z,4.7
2022-11-27T13:22:19.634Z,4.6
2022-11-27T13:23:19.979Z,4.7
2022-11-27T13:24:20.518Z,4.7
2022-11-27T13:25:19.792Z,4.7
2022-11-27T13:26:26.067Z,4.7
2022-11-27T13:27:19.367Z,4.7
2022-11-27T13:28:18.852Z,4.6
2022-11-27T13:29:18.697Z,4.6
2022-11-27T13:30:19.846Z,4.7
2022-11-27T13:31:20.465Z,4.6
2022-11-27T13:32:19.689Z,4.6
2022-11-27T13:33:19.534Z,4.6
2022-11-27T13:34:20.457Z,4
2022-11-27T13:35:19.861Z,4.6
2022-11-27T13:36:20.335Z,4.6
2022-11-27T13:37:20.211Z,4.6
2022-11-27T13:38:20.588Z,4.5
2022-11-27T13:39:20.487Z,4.5
2022-11-27T13:40:19.798Z,4.4
2022-11-27T13:41:20.435Z,4.4
2022-11-27T13:42:19.762Z,4.4
2022-11-27T13:43:19.517Z,4.4
2022-11-27T13:44:19.988Z,4.4
2022-11-27T13:45:19.740Z,4.4
2022-11-27T13:46:20.838Z,4.4
2022-11-27T13:47:20.142Z,4
2022-11-27T13:48:19.597Z,4.4
2022-11-27T13:49:19.734Z,4.3
2022-11-27T13:50:18.534Z,4
2022-11-27T13:51:19.364Z,4.4
2022-11-27T13:52:19.823Z,4.3
2022-11-27T13:53:20.314Z,4.3
2022-11-27T13:54:22.222Z,4.4